createdAt,value
2019-03-22T00:00:43.055Z,14.13
2019-03-22T00:05:46.617Z,13.85
2019-03-22T00:10:50.082Z,14.00
2019-03-22T00:15:53.589Z,14.75
2019-03-22T00:20:57.163Z,15.00
2019-03-22T00:26:01.306Z,15.15
2019-03-22T00:31:04.806Z,14.90
2019-03-22T00:36:08.282Z,14.58
2019-03-22T00:41:11.775Z,14.43
2019-03-22T00:46:15.494Z,14.70
2019-03-22T00:51:19.083Z,14.33
2019-03-22T00:56:22.622Z,14.30
2019-03-22T01:01:26.124Z,14.55
2019-03-22T01:06:29.594Z,14.98
2019-03-22T01:11:33.316Z,15.48
2019-03-22T01:16:36.823Z,14.95
2019-03-22T01:21:40.302Z,14.33
2019-03-22T01:26:43.775Z,14.65
2019-03-22T01:31:47.277Z,14.50
2019-03-22T01:36:51.037Z,14.70
2019-03-22T01:41:54.548Z,14.65
2019-03-22T01:46:58.273Z,15.45
2019-03-22T01:52:03.442Z,15.48
2019-03-22T01:57:06.989Z,15.50
2019-03-22T02:02:10.532Z,15.30
2019-03-22T02:07:14.150Z,15.13
2019-03-22T02:12:17.698Z,14.55
2019-03-22T02:17:21.273Z,15.78
2019-03-22T02:22:24.855Z,15.75
2019-03-22T02:27:28.319Z,16.82
2019-03-22T02:32:31.798Z,16.10
2019-03-22T02:37:35.446Z,16.00
2019-03-22T02:42:38.995Z,16.15
2019-03-22T02:47:42.625Z,16.55
2019-03-22T02:52:46.219Z,17.23
2019-03-22T02:57:49.779Z,16.90
2019-03-22T03:02:53.360Z,16.82
2019-03-22T03:07:56.996Z,17.90
2019-03-22T03:13:00.497Z,18.07
2019-03-22T03:18:07.309Z,17.65
2019-03-22T03:23:10.976Z,17.65
2019-03-22T03:28:14.480Z,19.12
2019-03-22T03:33:18.041Z,17.75
2019-03-22T03:38:21.562Z,17.92
2019-03-22T03:43:25.053Z,17.25
2019-03-22T03:48:28.549Z,19.30
2019-03-22T03:53:32.063Z,18.17
2019-03-22T03:58:51.192Z,18.98
2019-03-22T04:03:40.929Z,18.48
2019-03-22T04:08:44.439Z,19.10
2019-03-22T04:13:48.025Z,19.55
2019-03-22T04:18:51.566Z,19.10
2019-03-22T04:23:56.764Z,19.62
2019-03-22T04:29:07.149Z,19.10
2019-03-22T04:34:05.574Z,18.55
2019-03-22T04:39:09.067Z,19.45
2019-03-22T04:44:12.729Z,19.30
2019-03-22T04:49:17.953Z,18.57
2019-03-22T04:54:21.746Z,17.67
2019-03-22T04:59:26.603Z,19.07
2019-03-22T05:04:31.085Z,18.55
2019-03-22T05:09:36.313Z,18.73
2019-03-22T05:14:41.763Z,17.73
2019-03-22T05:19:48.336Z,18.82
2019-03-22T05:24:52.779Z,18.70
2019-03-22T05:29:58.420Z,18.35
2019-03-22T05:35:01.917Z,17.25
2019-03-22T05:40:07.103Z,17.02
2019-03-22T05:45:10.581Z,17.23
2019-03-22T05:50:14.047Z,17.00
2019-03-22T05:55:17.521Z,16.85
2019-03-22T06:00:21.099Z,16.85
2019-03-22T06:05:24.562Z,16.00
2019-03-22T06:10:28.038Z,14.18
2019-03-22T06:15:31.593Z,13.75
2019-03-22T06:20:35.074Z,12.40
2019-03-22T06:25:38.623Z,11.80
2019-03-22T06:30:42.141Z,11.05
2019-03-22T06:35:45.679Z,10.98
2019-03-22T06:40:49.190Z,10.00
2019-03-22T06:45:52.666Z,9.93
2019-03-22T06:50:56.141Z,9.23
2019-03-22T06:56:00.132Z,10.60
2019-03-22T07:01:03.637Z,8.45
2019-03-22T07:06:07.207Z,8.08
2019-03-22T07:11:10.718Z,8.03
2019-03-22T07:16:14.238Z,41.28
2019-03-22T07:21:17.896Z,111.90
2019-03-22T07:26:21.445Z,50.15
2019-03-22T07:31:25.033Z,43.00
2019-03-22T07:36:28.619Z,41.42
2019-03-22T07:41:32.184Z,37.70
2019-03-22T07:46:35.832Z,30.35
2019-03-22T07:51:39.405Z,26.15
2019-03-22T07:56:42.901Z,22.58
2019-03-22T08:01:46.379Z,20.80
2019-03-22T08:06:49.893Z,18.07
2019-03-22T08:11:53.443Z,15.68
2019-03-22T08:16:56.924Z,15.18
2019-03-22T08:22:00.391Z,14.05
2019-03-22T08:27:04.039Z,11.68
2019-03-22T08:32:07.542Z,11.95
2019-03-22T08:37:11.046Z,10.90
2019-03-22T08:42:14.582Z,10.03
2019-03-22T08:47:18.164Z,9.90
2019-03-22T08:52:21.722Z,8.75
2019-03-22T08:57:25.292Z,8.00
2019-03-22T09:02:28.810Z,7.75
2019-03-22T09:07:32.316Z,6.87
2019-03-22T09:12:35.920Z,6.67
2019-03-22T09:17:39.439Z,6.33
2019-03-22T09:22:42.943Z,5.22
2019-03-22T09:27:46.487Z,5.12
2019-03-22T09:32:50.078Z,4.55
2019-03-22T09:37:53.623Z,4.65
2019-03-22T09:42:57.182Z,3.98
2019-03-22T09:48:00.730Z,3.98
2019-03-22T09:53:04.361Z,3.67
2019-03-22T09:58:09.434Z,3.67
2019-03-22T10:03:12.908Z,3.87
2019-03-22T10:08:16.445Z,3.20
2019-03-22T10:13:19.916Z,3.42
2019-03-22T10:18:23.484Z,3.40
2019-03-22T10:23:27.049Z,2.98
2019-03-22T10:28:30.662Z,2.80
2019-03-22T10:33:34.139Z,2.40
2019-03-22T10:38:37.697Z,2.42
2019-03-22T10:43:41.192Z,2.58
2019-03-22T10:48:44.758Z,2.55
2019-03-22T10:53:48.435Z,2.50
2019-03-22T10:58:52.107Z,2.45
2019-03-22T11:03:55.795Z,2.40
2019-03-22T11:08:59.489Z,2.20
2019-03-22T11:14:03.057Z,2.10
2019-03-22T11:19:06.597Z,2.58
2019-03-22T11:24:10.069Z,2.12
2019-03-22T11:29:13.535Z,2.00
2019-03-22T11:34:16.995Z,2.00
2019-03-22T11:39:20.499Z,2.12
2019-03-22T11:44:24.071Z,2.08
2019-03-22T11:49:27.542Z,2.10
2019-03-22T11:54:31.007Z,1.90
2019-03-22T11:59:34.498Z,2.30
2019-03-22T12:04:38.002Z,2.12
2019-03-22T12:09:41.523Z,1.82
2019-03-22T12:14:45.003Z,1.90
2019-03-22T12:19:48.495Z,1.77
2019-03-22T12:24:52.027Z,2.10
2019-03-22T12:29:55.539Z,2.20
2019-03-22T12:34:59.058Z,2.00
2019-03-22T12:40:02.996Z,2.20
2019-03-22T12:45:09.535Z,1.90
2019-03-22T12:50:13.976Z,2.33
2019-03-22T12:55:17.786Z,1.92
2019-03-22T13:00:23.180Z,2.10
2019-03-22T13:05:26.660Z,2.05
2019-03-22T13:10:30.271Z,2.08
2019-03-22T13:15:33.782Z,2.00
2019-03-22T13:20:37.348Z,2.08
2019-03-22T13:25:40.817Z,2.10
2019-03-22T13:30:44.366Z,1.92
2019-03-22T13:35:47.879Z,1.80
2019-03-22T13:40:51.410Z,2.00
2019-03-22T13:45:54.869Z,2.10
2019-03-22T13:50:58.364Z,1.60
2019-03-22T13:56:01.861Z,1.82
2019-03-22T14:01:05.420Z,1.80
2019-03-22T14:06:08.885Z,1.80
2019-03-22T14:11:12.453Z,2.20
2019-03-22T14:16:15.982Z,2.02
2019-03-22T14:21:19.495Z,2.02
2019-03-22T14:26:23.026Z,1.60
2019-03-22T14:31:26.566Z,1.82
2019-03-22T14:36:30.037Z,1.90
2019-03-22T14:41:33.503Z,1.67
2019-03-22T14:46:37.432Z,1.98
2019-03-22T14:51:40.893Z,1.90
2019-03-22T14:56:44.366Z,1.95
2019-03-22T15:01:47.857Z,1.72
2019-03-22T15:06:51.336Z,1.82
2019-03-22T15:11:54.802Z,1.77
2019-03-22T15:17:09.001Z,1.77
2019-03-22T15:22:15.071Z,1.62
2019-03-22T15:27:36.497Z,1.75
2019-03-22T15:32:47.407Z,1.95
2019-03-22T15:38:08.999Z,1.70
2019-03-22T15:43:12.472Z,1.98
2019-03-22T15:48:16.078Z,2.10
2019-03-22T15:53:19.672Z,2.08
2019-03-22T15:58:23.178Z,2.08
2019-03-22T16:03:26.651Z,2.00
2019-03-22T16:08:30.208Z,2.00
2019-03-22T16:13:33.743Z,1.82
2019-03-22T16:18:37.208Z,1.87
2019-03-22T16:23:40.885Z,1.98
2019-03-22T16:28:44.431Z,2.20
2019-03-22T16:33:54.238Z,2.12
2019-03-22T16:38:53.185Z,2.00
2019-03-22T16:43:56.787Z,1.75
2019-03-22T16:49:00.259Z,2.00
2019-03-22T16:54:03.781Z,1.87
2019-03-22T16:59:07.294Z,1.95
2019-03-22T17:04:10.838Z,2.15
2019-03-22T17:09:14.383Z,2.40
2019-03-22T17:14:17.923Z,2.60
2019-03-22T17:19:21.421Z,2.65
2019-03-22T17:24:24.896Z,3.30
2019-03-22T17:29:28.438Z,2.75
2019-03-22T17:34:31.937Z,1.90
2019-03-22T17:39:38.640Z,2.17
2019-03-22T17:44:42.126Z,1.90
2019-03-22T17:49:48.497Z,1.80
2019-03-22T17:54:51.010Z,1.72
2019-03-22T17:59:54.474Z,1.90
2019-03-22T18:04:57.960Z,1.87
2019-03-22T18:10:01.442Z,1.80
2019-03-22T18:15:08.337Z,1.92
2019-03-22T18:20:14.239Z,2.08
2019-03-22T18:25:17.719Z,1.98
2019-03-22T18:30:21.458Z,2.15
2019-03-22T18:35:25.038Z,1.92
2019-03-22T18:40:28.543Z,2.17
2019-03-22T18:45:32.001Z,2.27
2019-03-22T18:50:35.488Z,2.27
2019-03-22T18:55:38.957Z,2.87
2019-03-22T19:00:42.423Z,3.17
2019-03-22T19:05:45.906Z,2.98
2019-03-22T19:10:49.446Z,3.47
2019-03-22T19:15:53.026Z,3.52
2019-03-22T19:20:57.090Z,3.85
2019-03-22T19:26:00.570Z,4.28
2019-03-22T19:31:04.139Z,4.10
2019-03-22T19:36:07.614Z,4.47
2019-03-22T19:41:11.121Z,4.67
2019-03-22T19:46:14.635Z,4.65
2019-03-22T19:51:18.117Z,4.92
2019-03-22T19:56:21.754Z,5.10
2019-03-22T20:01:25.303Z,5.08
2019-03-22T20:06:28.771Z,4.97
2019-03-22T20:11:32.348Z,4.80
2019-03-22T20:16:36.002Z,4.75
2019-03-22T20:21:40.152Z,4.95
2019-03-22T20:26:43.714Z,5.03
2019-03-22T20:31:47.290Z,6.10
2019-03-22T20:36:50.828Z,6.03
2019-03-22T20:41:54.356Z,5.42
2019-03-22T20:46:57.973Z,6.50
2019-03-22T20:52:01.567Z,6.58
2019-03-22T20:57:05.235Z,7.90
2019-03-22T21:02:08.705Z,8.85
2019-03-22T21:07:12.180Z,9.55
2019-03-22T21:12:15.716Z,9.78
2019-03-22T21:17:19.273Z,10.78
2019-03-22T21:22:22.895Z,10.80
2019-03-22T21:27:26.454Z,10.80
2019-03-22T21:32:30.036Z,11.53
2019-03-22T21:37:33.563Z,12.25
2019-03-22T21:42:37.064Z,12.23
2019-03-22T21:47:40.625Z,12.68
2019-03-22T21:52:45.062Z,12.23
2019-03-22T21:57:48.540Z,12.90
2019-03-22T22:02:52.104Z,13.32
2019-03-22T22:07:55.723Z,13.08
2019-03-22T22:12:59.200Z,13.70
2019-03-22T22:18:03.553Z,13.32
2019-03-22T22:23:07.135Z,13.55
2019-03-22T22:28:10.635Z,13.30
2019-03-22T22:33:14.111Z,12.80
2019-03-22T22:38:17.705Z,14.35
2019-03-22T22:43:21.206Z,13.58
2019-03-22T22:48:24.678Z,14.68
2019-03-22T22:53:28.157Z,14.33
2019-03-22T22:58:31.712Z,14.85
2019-03-22T23:03:35.218Z,15.72
2019-03-22T23:08:38.712Z,16.15
2019-03-22T23:13:42.174Z,15.60
2019-03-22T23:18:45.674Z,16.07
2019-03-22T23:23:49.153Z,17.23
2019-03-22T23:28:52.959Z,16.32
2019-03-22T23:33:56.430Z,16.65
2019-03-22T23:38:59.937Z,15.95
2019-03-22T23:44:03.455Z,16.30
2019-03-22T23:49:06.926Z,17.25
2019-03-22T23:54:10.433Z,17.67
2019-03-22T23:59:13.975Z,17.52
